Time;durP1;ratioP1;P1;durP2;ratioP2;P2;SDS_P1;SDS_P2;PMS_P1;PMS_P2;Temp;Humidity;BMP_temperature;BMP_pressure;BME280_temperature;BME280_humidity;BME280_pressure;Samples;Min_cycle;Max_cycle;Signal;HPM_P1;HPM_P2
2023/01/23 00:01:15;;;;;;;12.75;7.88;;;2.30;99.90;;;;;;5075447;28;20047;-46
2023/01/23 00:03:41;;;;;;;16.15;8.07;;;2.30;99.90;;;;;;5093794;28;20172;-48
2023/01/23 00:06:10;;;;;;;15.32;8.45;;;2.40;99.90;;;;;;5094355;28;20047;-47
2023/01/23 00:08:37;;;;;;;17.58;9.32;;;2.40;99.90;;;;;;5094948;28;20500;-45
2023/01/23 00:11:15;;;;;;;13.20;8.90;;;2.30;99.90;;;;;;5093919;28;20161;-48
2023/01/23 00:13:40;;;;;;;15.38;8.48;;;2.40;99.90;;;;;;5094325;28;20514;-46
2023/01/23 00:16:09;;;;;;;15.45;8.75;;;2.40;99.90;;;;;;5094170;28;20051;-48
2023/01/23 00:18:35;;;;;;;17.92;8.93;;;2.40;99.90;;;;;;5094270;28;20150;-45
2023/01/23 00:21:05;;;;;;;15.65;9.35;;;2.30;99.90;;;;;;5093407;28;20054;-51
2023/01/23 00:23:32;;;;;;;14.23;8.05;;;2.40;99.90;;;;;;5093850;28;20412;-46
2023/01/23 00:26:06;;;;;;;16.45;7.85;;;2.30;99.90;;;;;;5094095;28;20683;-45
2023/01/23 00:28:31;;;;;;;14.48;7.85;;;2.30;99.90;;;;;;5094000;28;20312;-46
2023/01/23 00:31:05;;;;;;;14.65;8.38;;;2.40;99.90;;;;;;5092926;28;20048;-45
2023/01/23 00:33:30;;;;;;;;;;;2.40;99.90;;;;;;5093808;28;20052;-47
2023/01/23 00:35:56;;;;;;;17.08;9.02;;;2.30;99.90;;;;;;5094300;28;19924;-46
2023/01/23 00:38:22;;;;;;;16.85;9.23;;;2.40;99.90;;;;;;5095508;28;20051;-45
2023/01/23 00:40:48;;;;;;;16.00;7.97;;;2.40;99.90;;;;;;5097171;28;20047;-46
2023/01/23 00:43:13;;;;;;;14.35;7.68;;;2.40;99.90;;;;;;5096958;28;20039;-46
2023/01/23 00:45:39;;;;;;;14.05;8.18;;;2.40;99.90;;;;;;5098041;28;20047;-46
2023/01/23 00:48:05;;;;;;;14.13;8.25;;;2.40;99.90;;;;;;5098784;28;20138;-45
2023/01/23 00:50:30;;;;;;;15.75;8.18;;;2.40;99.90;;;;;;5097496;28;20039;-47
2023/01/23 00:52:56;;;;;;;14.55;8.25;;;2.40;99.90;;;;;;5098149;28;20048;-45
2023/01/23 00:55:22;;;;;;;23.90;8.18;;;2.40;99.90;;;;;;5097769;28;20048;-45
2023/01/23 00:57:47;;;;;;;14.85;7.95;;;2.40;99.90;;;;;;5098229;28;20441;-50
2023/01/23 01:00:13;;;;;;;12.48;7.82;;;2.40;99.90;;;;;;5078509;28;20055;-47
2023/01/23 01:02:39;;;;;;;14.15;8.02;;;2.40;99.90;;;;;;5097909;28;20264;-45
2023/01/23 01:05:05;;;;;;;13.25;7.88;;;2.40;99.90;;;;;;5096938;28;20048;-46
2023/01/23 01:07:31;;;;;;;10.77;8.15;;;2.50;99.90;;;;;;5061747;28;20509;-46
2023/01/23 01:10:00;;;;;;;14.52;8.07;;;2.40;99.90;;;;;;5098050;28;20092;-45
2023/01/23 01:12:25;;;;;;;15.43;8.40;;;2.50;99.90;;;;;;5097895;28;20557;-46
2023/01/23 01:14:51;;;;;;;14.75;8.48;;;2.50;99.90;;;;;;5096918;28;20060;-46
2023/01/23 01:17:16;;;;;;;17.85;8.00;;;2.50;99.90;;;;;;5098245;28;20045;-46
2023/01/23 01:19:42;;;;;;;15.50;8.52;;;2.50;99.90;;;;;;5097572;28;20043;-45
2023/01/23 01:22:08;;;;;;;12.77;7.80;;;2.40;99.90;;;;;;5097742;28;20120;-47
2023/01/23 01:24:33;;;;;;;16.40;8.07;;;2.50;99.90;;;;;;5096980;28;20124;-46
2023/01/23 01:26:59;;;;;;;12.95;7.93;;;2.50;99.90;;;;;;5097837;28;20054;-48
2023/01/23 01:29:25;;;;;;;14.30;8.38;;;2.50;99.90;;;;;;5096637;28;20047;-47
2023/01/23 01:31:50;;;;;;;10.48;8.30;;;2.50;99.90;;;;;;5078159;28;20055;-47
2023/01/23 01:34:16;;;;;;;16.80;8.27;;;2.50;99.90;;;;;;5097005;28;20538;-48
2023/01/23 01:36:41;;;;;;;13.25;8.85;;;2.60;99.90;;;;;;5078562;28;20343;-46
2023/01/23 01:39:07;;;;;;;14.43;8.45;;;2.60;99.90;;;;;;5095756;28;20047;-45
2023/01/23 01:41:34;;;;;;;14.48;9.00;;;2.50;99.90;;;;;;5096545;28;20054;-46
2023/01/23 01:44:00;;;;;;;19.02;8.57;;;2.50;99.90;;;;;;5060850;28;20155;-46
2023/01/23 01:46:27;;;;;;;14.50;8.45;;;2.50;99.90;;;;;;5097230;28;20043;-46
2023/01/23 01:48:56;;;;;;;14.73;9.07;;;2.40;99.90;;;;;;5096577;28;20603;-46
2023/01/23 01:51:44;;;;;;;19.92;9.18;;;2.50;99.90;;;;;;5095357;28;20413;-48
2023/01/23 01:54:20;;;;;;;16.23;9.38;;;2.50;99.90;;;;;;5095979;28;20646;-47
2023/01/23 01:56:48;;;;;;;16.58;9.52;;;2.50;99.90;;;;;;5078677;28;20059;-47
2023/01/23 01:59:15;;;;;;;15.63;9.23;;;2.50;99.90;;;;;;5096786;28;20086;-47
2023/01/23 02:01:44;;;;;;;19.70;9.35;;;2.50;99.90;;;;;;5096423;28;20505;-49
2023/01/23 02:04:09;;;;;;;16.65;9.30;;;2.40;99.90;;;;;;5095553;28;20315;-46
2023/01/23 02:06:35;;;;;;;16.40;9.27;;;2.50;99.90;;;;;;5096368;28;20435;-47
2023/01/23 02:09:23;;;;;;;18.00;9.05;;;2.50;99.90;;;;;;5095622;28;20131;-48
2023/01/23 02:11:49;;;;;;;18.65;9.40;;;2.40;99.90;;;;;;5096866;28;20222;-46
2023/01/23 02:14:15;;;;;;;19.63;10.32;;;2.50;99.90;;;;;;5078029;28;20051;-47
2023/01/23 02:16:49;;;;;;;15.95;9.50;;;2.50;99.90;;;;;;5078647;28;20058;-46
2023/01/23 02:19:51;;;;;;;15.60;10.05;;;2.40;99.90;;;;;;5096297;28;20057;-45
2023/01/23 02:22:36;;;;;;;17.27;10.73;;;2.40;99.90;;;;;;5016550;28;20268;-47
2023/01/23 02:25:16;;;;;;;18.80;11.27;;;2.30;99.90;;;;;;5032431;28;20056;-45
2023/01/23 02:27:42;;;;;;;21.08;11.57;;;2.40;99.90;;;;;;5032159;28;20691;-47
2023/01/23 02:30:08;;;;;;;18.30;10.60;;;2.30;99.90;;;;;;5031861;28;20053;-46
2023/01/23 02:32:37;;;;;;;15.38;10.02;;;2.40;99.90;;;;;;5031788;28;20076;-45
2023/01/23 02:35:12;;;;;;;18.23;10.48;;;2.30;99.90;;;;;;5032201;28;20045;-47
2023/01/23 02:37:42;;;;;;;18.38;10.40;;;2.30;99.90;;;;;;5015575;28;20063;-45
2023/01/23 02:40:09;;;;;;;15.80;11.30;;;2.30;99.90;;;;;;5014867;28;20528;-45
2023/01/23 02:42:35;;;;;;;19.15;12.20;;;2.30;99.90;;;;;;5031564;28;20052;-46
2023/01/23 02:45:00;;;;;;;21.65;11.27;;;2.30;99.90;;;;;;5031827;28;20049;-46
2023/01/23 02:47:28;;;;;;;20.17;11.50;;;2.20;99.90;;;;;;5032908;28;20049;-46
2023/01/23 02:49:54;;;;;;;21.67;11.30;;;2.20;99.90;;;;;;5031328;28;20419;-45
2023/01/23 02:52:21;;;;;;;18.05;11.35;;;2.30;99.90;;;;;;5031586;28;20053;-48
2023/01/23 02:54:47;;;;;;;18.70;11.43;;;2.20;99.90;;;;;;5032107;28;20136;-45
2023/01/23 02:57:13;;;;;;;25.52;12.88;;;2.20;99.90;;;;;;5015631;28;20545;-45
2023/01/23 03:02:23;;;;;;;20.08;11.63;;;2.20;99.90;;;;;;5095046;28;20078;-46
2023/01/23 03:04:48;;;;;;;17.77;11.52;;;2.20;99.90;;;;;;5077004;28;20166;-46
2023/01/23 03:07:14;;;;;;;20.17;11.27;;;2.20;99.90;;;;;;5094907;28;20048;-46
2023/01/23 03:09:41;;;;;;;20.75;12.05;;;2.20;99.90;;;;;;5094756;28;20144;-47
2023/01/23 03:12:08;;;;;;;22.40;11.60;;;2.20;99.90;;;;;;5095564;28;20502;-45
2023/01/23 03:14:33;;;;;;;20.42;11.55;;;2.20;99.90;;;;;;5094675;28;20048;-47
2023/01/23 03:16:59;;;;;;;19.27;11.07;;;2.30;99.90;;;;;;5094991;28;20050;-50
2023/01/23 03:19:25;;;;;;;20.15;11.23;;;2.30;99.90;;;;;;5095385;28;20062;-48
2023/01/23 03:21:52;;;;;;;21.33;12.20;;;2.30;99.90;;;;;;5094383;28;20112;-47
2023/01/23 03:24:19;;;;;;;16.98;11.32;;;2.30;99.90;;;;;;5094522;28;20405;-47
2023/01/23 03:26:46;;;;;;;19.58;11.52;;;2.40;99.90;;;;;;5095869;28;20143;-47
2023/01/23 03:32:10;;;;;;;22.58;12.60;;;2.30;99.90;;;;;;5094700;28;20113;-46
2023/01/23 03:34:37;;;;;;;18.35;10.90;;;2.30;99.90;;;;;;5094498;28;20055;-45
2023/01/23 03:37:03;;;;;;;23.27;12.70;;;2.40;99.90;;;;;;5094625;28;20132;-45
2023/01/23 03:42:14;;;;;;;25.55;13.85;;;2.30;99.90;;;;;;5094485;28;20410;-46
2023/01/23 03:44:39;;;;;;;25.73;14.25;;;2.30;99.90;;;;;;5094505;28;20474;-45
2023/01/23 03:47:06;;;;;;;27.00;14.73;;;2.20;99.90;;;;;;5076365;28;20112;-45
2023/01/23 03:49:32;;;;;;;32.65;14.00;;;2.20;99.90;;;;;;5094100;28;20039;-46
2023/01/23 03:51:58;;;;;;;23.55;14.65;;;2.20;99.90;;;;;;5095089;28;20046;-46
2023/01/23 03:54:24;;;;;;;24.10;14.40;;;2.20;99.90;;;;;;5094913;28;20047;-47
2023/01/23 03:56:49;;;;;;;21.83;14.65;;;2.20;99.90;;;;;;5094990;28;20583;-47
2023/01/23 03:59:15;;;;;;;25.35;14.30;;;2.20;99.90;;;;;;5059421;28;20115;-48
2023/01/23 04:01:41;;;;;;;23.33;13.45;;;2.20;99.90;;;;;;5094723;28;20090;-45
2023/01/23 04:04:07;;;;;;;27.02;14.18;;;2.10;99.90;;;;;;5094372;28;20051;-45
2023/01/23 04:06:33;;;;;;;28.17;14.07;;;2.20;99.90;;;;;;5095084;28;20529;-46
2023/01/23 04:08:58;;;;;;;22.48;14.25;;;2.20;99.90;;;;;;5094408;28;20106;-46
2023/01/23 04:11:25;;;;;;;22.50;13.90;;;2.20;99.90;;;;;;5094657;28;20564;-46
2023/01/23 04:13:52;;;;;;;19.88;13.75;;;2.20;99.90;;;;;;5093384;28;20043;-46
2023/01/23 04:16:18;;;;;;;22.02;13.52;;;2.20;99.90;;;;;;5094239;28;20402;-46
2023/01/23 04:18:43;;;;;;;16.70;12.93;;;2.20;99.90;;;;;;5094714;28;20043;-46
2023/01/23 04:21:09;;;;;;;23.08;13.48;;;2.20;99.90;;;;;;5093872;28;20256;-46
2023/01/23 04:23:35;;;;;;;20.27;12.95;;;2.30;99.90;;;;;;5093573;28;20177;-47
2023/01/23 04:26:01;;;;;;;22.80;13.57;;;2.20;99.90;;;;;;5075565;28;20550;-47
2023/01/23 04:28:26;;;;;;;20.40;12.18;;;2.30;99.90;;;;;;5094036;28;20078;-46
2023/01/23 04:30:52;;;;;;;21.60;12.68;;;2.30;99.90;;;;;;5093146;28;20103;-45
2023/01/23 04:33:19;;;;;;;20.27;13.05;;;2.30;99.90;;;;;;5093589;28;20039;-48
2023/01/23 04:35:59;;;;;;;20.70;13.32;;;2.30;99.90;;;;;;5094356;28;20501;-46
2023/01/23 04:38:26;;;;;;;23.30;13.27;;;2.20;99.90;;;;;;5075648;28;20051;-46
2023/01/23 04:40:53;;;;;;;22.23;13.70;;;2.30;99.90;;;;;;5092924;28;20048;-45
2023/01/23 04:43:18;;;;;;;20.13;13.07;;;2.20;99.90;;;;;;5093136;28;20090;-46
2023/01/23 04:45:44;;;;;;;18.52;13.05;;;2.30;99.90;;;;;;5093363;28;20130;-45
2023/01/23 04:48:11;;;;;;;20.83;13.70;;;2.20;99.90;;;;;;5075882;28;20110;-49
2023/01/23 04:50:37;;;;;;;21.40;13.32;;;2.20;99.90;;;;;;5092948;28;20054;-46
2023/01/23 04:53:03;;;;;;;26.55;14.77;;;2.30;99.90;;;;;;5093232;28;20047;-45
2023/01/23 04:55:29;;;;;;;22.05;13.85;;;2.30;99.90;;;;;;5094261;28;20044;-48
2023/01/23 04:57:55;;;;;;;28.30;15.00;;;2.30;99.90;;;;;;5092969;28;20051;-52
2023/01/23 05:00:21;;;;;;;24.73;13.68;;;2.20;99.90;;;;;;5092484;28;20203;-47
2023/01/23 05:02:47;;;;;;;21.98;14.20;;;2.30;99.90;;;;;;5092151;28;20039;-45
2023/01/23 05:05:16;;;;;;;25.20;14.52;;;2.30;99.90;;;;;;5080049;28;20044;-46
2023/01/23 05:07:42;;;;;;;21.73;14.75;;;2.30;99.90;;;;;;5075672;28;20325;-45
2023/01/23 05:10:09;;;;;;;22.60;14.38;;;2.20;99.90;;;;;;5092821;28;20471;-45
2023/01/23 05:12:34;;;;;;;25.10;14.98;;;2.20;99.90;;;;;;5092354;28;20101;-46
2023/01/23 05:15:03;;;;;;;23.85;13.02;;;2.20;99.90;;;;;;5075555;28;20448;-46
2023/01/23 05:17:28;;;;;;;20.33;13.70;;;2.20;99.90;;;;;;5075380;28;20113;-45
2023/01/23 05:19:54;;;;;;;21.05;13.38;;;2.20;99.90;;;;;;5092865;28;20561;-47
2023/01/23 05:22:21;;;;;;;21.33;12.55;;;2.30;99.90;;;;;;5073873;28;20465;-47
2023/01/23 05:24:47;;;;;;;20.55;12.43;;;2.20;99.90;;;;;;5076208;28;20387;-47
2023/01/23 05:27:13;;;;;;;21.63;13.32;;;2.30;99.90;;;;;;5096365;28;20465;-45
2023/01/23 05:29:42;;;;;;;24.85;13.60;;;2.30;99.90;;;;;;5096277;28;20048;-46
2023/01/23 05:32:07;;;;;;;21.30;13.85;;;2.40;99.90;;;;;;5096324;28;20548;-46
2023/01/23 05:34:33;;;;;;;17.38;12.50;;;2.30;99.90;;;;;;5096143;28;20466;-47
2023/01/23 05:36:59;;;;;;;22.17;13.55;;;2.30;99.90;;;;;;5064359;28;20456;-49
2023/01/23 05:39:24;;;;;;;19.77;13.55;;;2.30;99.90;;;;;;5096585;28;20059;-49
2023/01/23 05:41:50;;;;;;;24.38;14.02;;;2.30;99.90;;;;;;5096455;28;20056;-46
2023/01/23 05:44:15;;;;;;;21.77;14.30;;;2.20;99.90;;;;;;5096717;28;20101;-47
2023/01/23 05:46:41;;;;;;;26.67;14.95;;;2.10;99.90;;;;;;5097449;28;20127;-46
2023/01/23 05:49:07;;;;;;;21.88;15.15;;;2.30;99.90;;;;;;5096620;28;20044;-46
2023/01/23 05:51:32;;;;;;;20.98;14.10;;;2.30;99.90;;;;;;5096417;28;20048;-48
2023/01/23 05:54:00;;;;;;;21.92;14.25;;;2.20;99.90;;;;;;5096411;28;20066;-46
2023/01/23 05:56:26;;;;;;;22.67;14.55;;;2.30;99.90;;;;;;5097316;28;20173;-45
2023/01/23 05:58:52;;;;;;;20.65;14.10;;;2.30;99.90;;;;;;5096045;28;20747;-45
2023/01/23 06:01:18;;;;;;;23.38;14.30;;;2.20;99.90;;;;;;5096807;28;20063;-46
2023/01/23 06:03:45;;;;;;;27.58;16.17;;;2.20;99.90;;;;;;5078228;28;20170;-45
2023/01/23 06:06:10;;;;;;;21.38;14.90;;;2.20;99.90;;;;;;5095724;28;20047;-46
2023/01/23 06:08:36;;;;;;;25.17;15.75;;;2.20;99.90;;;;;;5083245;28;20050;-47
2023/01/23 06:11:02;;;;;;;20.23;14.88;;;2.10;99.90;;;;;;5095774;28;20058;-48
2023/01/23 06:13:28;;;;;;;25.33;14.75;;;2.20;99.90;;;;;;5077398;28;20052;-46
2023/01/23 06:15:54;;;;;;;23.83;16.00;;;2.20;99.90;;;;;;5096107;28;20047;-49
2023/01/23 06:18:21;;;;;;;26.13;15.10;;;2.20;99.90;;;;;;5095271;28;20061;-48
2023/01/23 06:20:46;;;;;;;20.63;15.30;;;2.20;99.90;;;;;;5095001;28;20451;-48
2023/01/23 06:23:12;;;;;;;21.50;14.30;;;2.20;99.90;;;;;;5094372;28;20116;-50
2023/01/23 06:25:38;;;;;;;23.85;15.93;;;2.20;99.90;;;;;;5077048;28;20090;-46
2023/01/23 06:28:04;;;;;;;21.65;14.38;;;2.10;99.90;;;;;;5095612;28;20130;-48
2023/01/23 06:30:30;;;;;;;22.92;14.77;;;2.20;99.90;;;;;;5095285;28;20591;-47
2023/01/23 06:32:56;;;;;;;24.98;14.88;;;2.20;99.90;;;;;;5095623;28;20054;-48
2023/01/23 06:35:22;;;;;;;20.98;15.10;;;2.20;99.90;;;;;;5094743;28;20054;-49
2023/01/23 06:37:47;;;;;;;23.60;15.60;;;2.10;99.90;;;;;;5095306;28;20062;-46
2023/01/23 06:40:14;;;;;;;25.10;15.88;;;2.10;99.90;;;;;;5095019;28;20363;-46
2023/01/23 06:42:40;;;;;;;23.27;15.52;;;2.20;99.90;;;;;;5094929;28;20040;-45
2023/01/23 06:45:08;;;;;;;22.83;14.60;;;2.10;99.90;;;;;;5094504;28;20394;-45
2023/01/23 06:47:34;;;;;;;25.55;15.45;;;2.20;99.90;;;;;;5095374;28;20130;-46
2023/01/23 06:50:01;;;;;;;23.85;15.85;;;2.20;99.90;;;;;;5094330;28;20051;-46
2023/01/23 06:52:27;;;;;;;24.20;14.98;;;2.20;99.90;;;;;;5094673;28;20079;-46
2023/01/23 06:54:53;;;;;;;21.75;14.43;;;2.20;99.90;;;;;;5077153;28;20054;-46
2023/01/23 06:57:19;;;;;;;22.70;15.57;;;2.20;99.90;;;;;;5076936;28;20051;-46
2023/01/23 06:59:44;;;;;;;21.33;14.70;;;2.20;99.90;;;;;;5094137;28;20132;-46
2023/01/23 07:02:11;;;;;;;25.10;14.60;;;2.10;99.90;;;;;;5093796;28;20113;-45
2023/01/23 07:04:36;;;;;;;26.67;14.88;;;2.20;99.90;;;;;;5094526;28;20520;-46
2023/01/23 07:07:03;;;;;;;22.33;16.00;;;2.10;99.90;;;;;;5095077;28;20499;-46
2023/01/23 07:09:28;;;;;;;26.38;15.05;;;2.10;99.90;;;;;;5094907;28;20069;-45
2023/01/23 07:11:54;;;;;;;24.60;15.65;;;2.10;99.90;;;;;;5094943;28;20044;-46
2023/01/23 07:14:20;;;;;;;20.83;15.45;;;2.20;99.90;;;;;;5093962;28;20078;-47
2023/01/23 07:16:46;;;;;;;23.25;15.35;;;2.20;99.90;;;;;;5095016;28;20044;-45
2023/01/23 07:19:11;;;;;;;24.48;15.27;;;2.20;99.90;;;;;;5093633;28;20409;-47
2023/01/23 07:21:37;;;;;;;22.58;15.10;;;2.10;99.90;;;;;;5095069;28;20302;-46
2023/01/23 07:24:03;;;;;;;25.73;15.38;;;2.20;99.90;;;;;;5076059;28;20058;-45
2023/01/23 07:26:29;;;;;;;24.92;15.43;;;2.10;99.90;;;;;;5095440;28;20382;-47
2023/01/23 07:28:54;;;;;;;24.15;15.60;;;2.20;99.90;;;;;;5094874;28;20070;-45
2023/01/23 07:31:21;;;;;;;20.05;14.18;;;2.20;99.90;;;;;;5095329;28;20051;-47
2023/01/23 07:33:46;;;;;;;25.50;15.43;;;2.20;99.90;;;;;;5094152;28;20460;-45
2023/01/23 07:36:17;;;;;;;24.23;15.07;;;2.10;99.90;;;;;;5076134;28;20054;-46
2023/01/23 07:38:42;;;;;;;23.85;14.70;;;2.20;99.90;;;;;;5075589;28;20160;-46
2023/01/23 07:41:08;;;;;;;21.92;15.60;;;2.20;99.90;;;;;;5094629;28;20055;-48
2023/01/23 07:43:34;;;;;;;27.85;15.90;;;2.30;99.90;;;;;;5093317;28;20043;-45
2023/01/23 07:46:01;;;;;;;22.33;14.70;;;2.20;99.90;;;;;;5094391;28;20663;-45
2023/01/23 07:48:28;;;;;;;25.25;16.48;;;2.20;99.90;;;;;;5093323;28;20211;-47
2023/01/23 07:50:54;;;;;;;22.85;15.38;;;2.20;99.90;;;;;;5094125;28;20043;-46
2023/01/23 07:53:19;;;;;;;19.50;15.15;;;2.20;99.90;;;;;;5093613;28;20047;-46
2023/01/23 07:55:45;;;;;;;28.63;16.15;;;2.20;99.90;;;;;;5076168;28;20116;-46
2023/01/23 07:58:11;;;;;;;20.65;15.07;;;2.20;99.90;;;;;;5093651;28;20592;-46
2023/01/23 08:00:37;;;;;;;19.75;15.18;;;2.30;99.90;;;;;;5093452;28;20474;-47
2023/01/23 08:03:02;;;;;;;20.85;15.18;;;2.30;99.90;;;;;;5092999;28;20415;-45
2023/01/23 08:05:28;;;;;;;27.23;15.65;;;2.40;99.90;;;;;;5093988;28;20047;-46
2023/01/23 08:07:54;;;;;;;20.33;14.82;;;2.40;99.90;;;;;;5092985;28;20044;-45
2023/01/23 08:10:20;;;;;;;23.60;14.80;;;2.40;99.90;;;;;;5092831;28;20043;-47
2023/01/23 08:12:45;;;;;;;20.83;14.50;;;2.30;99.90;;;;;;5093003;28;20043;-46
2023/01/23 08:15:12;;;;;;;23.05;15.57;;;2.30;99.90;;;;;;5075328;28;20051;-46
2023/01/23 08:17:37;;;;;;;23.95;14.93;;;2.40;99.90;;;;;;5058420;28;20130;-46
2023/01/23 08:20:04;;;;;;;22.60;14.80;;;2.40;99.90;;;;;;5093909;28;20425;-46
2023/01/23 08:22:29;;;;;;;20.70;13.63;;;2.40;99.90;;;;;;5093907;28;20462;-46
2023/01/23 08:24:55;;;;;;;20.40;14.13;;;2.50;99.90;;;;;;5094335;28;20048;-46
2023/01/23 08:27:20;;;;;;;24.02;14.63;;;2.40;99.90;;;;;;5093264;28;20577;-46
2023/01/23 08:29:46;;;;;;;18.95;14.30;;;2.40;99.90;;;;;;5093897;28;20490;-46
2023/01/23 08:32:12;;;;;;;26.02;15.07;;;2.50;99.90;;;;;;5057651;28;20150;-46
2023/01/23 08:34:38;;;;;;;20.88;14.60;;;2.50;99.90;;;;;;5093631;28;20050;-45
2023/01/23 08:37:03;;;;;;;19.33;14.75;;;2.50;99.90;;;;;;5093440;28;20469;-46
2023/01/23 08:39:29;;;;;;;20.45;14.23;;;2.50;99.90;;;;;;5093422;28;20128;-46
2023/01/23 08:41:55;;;;;;;21.38;15.05;;;2.60;99.90;;;;;;5093426;28;20052;-45
2023/01/23 08:44:20;;;;;;;19.23;13.73;;;2.60;99.90;;;;;;5092512;28;20056;-49
2023/01/23 08:46:46;;;;;;;20.90;14.90;;;2.60;99.90;;;;;;5093252;28;20085;-46
2023/01/23 08:49:12;;;;;;;20.52;15.20;;;2.60;99.90;;;;;;5092742;28;20051;-45
2023/01/23 08:51:38;;;;;;;19.70;13.85;;;2.70;99.90;;;;;;5092566;28;20413;-46
2023/01/23 08:54:03;;;;;;;23.92;15.10;;;2.60;99.90;;;;;;5091277;28;20047;-47
2023/01/23 08:56:29;;;;;;;22.65;14.68;;;2.70;99.90;;;;;;5092729;28;20058;-50
2023/01/23 08:58:56;;;;;;;22.52;16.33;;;2.70;99.90;;;;;;5093415;28;20503;-46
2023/01/23 09:01:23;;;;;;;18.95;13.88;;;2.60;99.90;;;;;;5096918;28;20339;-48
2023/01/23 09:03:49;;;;;;;22.27;15.07;;;2.70;99.90;;;;;;5096067;28;20146;-45
2023/01/23 09:06:17;;;;;;;17.92;13.45;;;2.70;99.90;;;;;;5079047;28;20440;-46
2023/01/23 09:08:44;;;;;;;20.67;14.60;;;2.70;99.90;;;;;;5096169;28;20411;-45
2023/01/23 09:11:11;;;;;;;20.38;14.20;;;2.80;99.90;;;;;;5096094;28;20083;-47
2023/01/23 09:13:36;;;;;;;19.48;14.13;;;2.70;99.90;;;;;;5095647;28;20044;-46
2023/01/23 09:16:03;;;;;;;24.27;14.43;;;2.70;99.90;;;;;;5095898;28;20494;-47
2023/01/23 09:18:29;;;;;;;20.73;14.30;;;2.80;99.90;;;;;;5094074;28;20050;-46
2023/01/23 09:20:55;;;;;;;20.10;14.30;;;2.80;99.90;;;;;;5096558;28;20051;-46
2023/01/23 09:23:21;;;;;;;20.02;14.27;;;2.80;99.90;;;;;;5096097;28;20048;-45
2023/01/23 09:25:47;;;;;;;22.83;14.98;;;2.80;99.90;;;;;;5096659;28;20039;-45
2023/01/23 09:28:13;;;;;;;21.50;13.93;;;2.80;99.90;;;;;;5097223;28;20089;-46
2023/01/23 09:30:39;;;;;;;19.48;13.55;;;2.90;99.90;;;;;;5077896;28;20126;-46
2023/01/23 09:33:06;;;;;;;18.65;13.70;;;2.90;99.90;;;;;;5096424;28;20128;-46
2023/01/23 09:35:32;;;;;;;20.17;13.38;;;2.80;99.90;;;;;;5078590;28;20055;-47
2023/01/23 09:38:00;;;;;;;17.05;12.98;;;2.90;99.90;;;;;;5096146;28;20402;-50
2023/01/23 09:40:42;;;;;;;14.90;11.90;;;3.00;99.90;;;;;;5095483;28;20081;-49
2023/01/23 09:43:19;;;;;;;19.55;12.40;;;2.90;99.90;;;;;;5095733;28;20039;-49
2023/01/23 09:46:00;;;;;;;18.85;12.70;;;3.00;99.90;;;;;;5096910;28;20047;-46
2023/01/23 09:48:51;;;;;;;17.42;11.85;;;3.00;99.90;;;;;;5095250;28;20096;-46
2023/01/23 09:51:38;;;;;;;17.45;12.18;;;3.00;99.90;;;;;;5093884;28;20047;-46
2023/01/23 09:54:19;;;;;;;16.65;12.45;;;2.90;99.90;;;;;;5091627;28;20490;-46
2023/01/23 09:56:47;;;;;;;16.80;11.80;;;3.00;99.90;;;;;;5077734;28;20079;-48
2023/01/23 09:59:24;;;;;;;18.77;12.93;;;3.00;99.90;;;;;;5096272;28;20047;-46
2023/01/23 10:01:50;;;;;;;18.45;12.05;;;3.00;99.90;;;;;;5095284;28;20343;-47
2023/01/23 10:04:18;;;;;;;17.70;12.15;;;3.00;99.90;;;;;;5091714;28;20502;-45
2023/01/23 10:07:02;;;;;;;16.73;12.55;;;3.00;99.90;;;;;;5071191;28;20538;-45
2023/01/23 10:09:47;;;;;;;15.50;11.57;;;3.10;99.90;;;;;;5093970;28;20573;-46
2023/01/23 10:12:38;;;;;;;18.33;11.65;;;3.10;99.90;;;;;;5094992;28;20043;-49
2023/01/23 10:15:20;;;;;;;16.73;10.32;;;3.10;99.90;;;;;;5078003;28;20051;-45
2023/01/23 10:18:01;;;;;;;16.98;11.63;;;3.10;99.90;;;;;;5092397;28;20059;-48
2023/01/23 10:20:39;;;;;;;16.70;11.23;;;3.10;99.90;;;;;;5095346;28;20078;-45
2023/01/23 10:23:23;;;;;;;14.77;10.82;;;3.20;99.90;;;;;;5081556;28;20051;-47
2023/01/23 10:25:49;;;;;;;17.13;11.35;;;3.20;99.90;;;;;;5081261;28;20043;-46
2023/01/23 10:28:34;;;;;;;16.08;10.77;;;3.20;99.90;;;;;;5076748;28;20056;-48
2023/01/23 10:31:03;;;;;;;13.20;10.43;;;3.20;99.90;;;;;;5076351;28;20682;-46
2023/01/23 10:33:44;;;;;;;14.50;10.90;;;3.30;99.90;;;;;;5076719;28;20048;-46
2023/01/23 10:36:27;;;;;;;14.88;11.27;;;3.30;99.90;;;;;;5095432;28;20200;-48
2023/01/23 10:39:21;;;;;;;16.50;10.65;;;3.30;99.90;;;;;;5094931;28;20079;-45
2023/01/23 10:41:47;;;;;;;;;;;3.30;99.90;;;;;;5095142;28;20434;-46
2023/01/23 10:44:16;;;;;;;15.75;10.90;;;3.30;99.90;;;;;;5077361;28;20539;-46
2023/01/23 10:46:59;;;;;;;14.30;10.20;;;3.30;99.90;;;;;;5095585;28;20056;-48
2023/01/23 10:49:30;;;;;;;13.63;9.93;;;3.40;99.90;;;;;;5094916;28;20310;-47
2023/01/23 10:51:55;;;;;;;13.98;10.70;;;3.40;99.90;;;;;;5093369;28;20523;-46
2023/01/23 10:54:26;;;;;;;13.75;10.43;;;3.40;99.90;;;;;;5095032;28;20039;-50
2023/01/23 10:56:57;;;;;;;14.13;10.40;;;3.40;99.90;;;;;;5076940;28;20594;-44
2023/01/23 10:59:38;;;;;;;13.65;10.65;;;3.40;99.90;;;;;;5094543;28;20165;-49
2023/01/23 11:02:19;;;;;;;11.90;10.00;;;3.40;99.90;;;;;;5094053;28;20051;-47
2023/01/23 11:04:48;;;;;;;12.13;9.73;;;3.50;99.90;;;;;;5074465;28;20603;-49
2023/01/23 11:07:17;;;;;;;12.82;9.07;;;3.50;99.90;;;;;;5063851;28;20541;-44
2023/01/23 11:09:59;;;;;;;14.10;10.85;;;3.50;99.90;;;;;;5085305;28;20254;-48
2023/01/23 11:12:30;;;;;;;12.23;9.50;;;3.50;99.90;;;;;;5075418;28;20044;-46
2023/01/23 11:15:20;;;;;;;14.32;10.32;;;3.50;99.90;;;;;;5093588;28;20063;-47
2023/01/23 11:17:47;;;;;;;14.60;9.65;;;3.60;99.90;;;;;;5077294;28;20047;-49
2023/01/23 11:20:23;;;;;;;14.70;9.65;;;3.70;99.90;;;;;;5093359;28;20122;-46
2023/01/23 11:23:02;;;;;;;10.35;9.05;;;3.70;99.90;;;;;;5074771;28;20511;-46
2023/01/23 11:25:29;;;;;;;13.05;9.10;;;3.70;99.90;;;;;;5086245;28;20552;-45
2023/01/23 11:28:16;;;;;;;10.60;9.23;;;3.70;99.90;;;;;;5085447;28;20063;-46
2023/01/23 11:31:10;;;;;;;11.55;8.55;;;3.80;99.90;;;;;;5094220;28;20048;-44
2023/01/23 11:33:51;;;;;;;10.60;8.15;;;3.90;99.90;;;;;;5093972;28;20078;-46
2023/01/23 11:36:16;;;;;;;9.82;8.02;;;3.90;99.90;;;;;;5082424;28;20096;-46
2023/01/23 11:39:20;;;;;;;10.40;8.20;;;3.90;99.90;;;;;;5075510;28;20043;-45
2023/01/23 11:41:46;;;;;;;10.18;7.18;;;3.90;99.90;;;;;;5010555;28;20548;-45
2023/01/23 11:44:21;;;;;;;8.00;7.20;;;3.90;99.90;;;;;;5007663;28;20045;-46
2023/01/23 11:47:04;;;;;;;9.50;7.40;;;3.90;99.90;;;;;;5010589;28;20049;-46
2023/01/23 11:49:48;;;;;;;8.95;7.35;;;4.00;99.90;;;;;;5010271;28;20053;-45
2023/01/23 11:52:34;;;;;;;8.27;6.80;;;4.10;99.90;;;;;;4980334;28;20057;-47
2023/01/23 11:55:26;;;;;;;7.95;6.55;;;4.10;99.90;;;;;;4994356;28;20946;-46
2023/01/23 11:58:13;;;;;;;8.38;6.82;;;4.20;99.90;;;;;;5011078;28;20160;-47
2023/01/23 12:00:48;;;;;;;9.68;6.53;;;4.20;99.90;;;;;;5010320;28;20571;-45
2023/01/23 12:03:30;;;;;;;8.07;5.38;;;4.20;99.90;;;;;;5009960;28;20990;-45
2023/01/23 12:06:02;;;;;;;8.88;5.50;;;4.20;99.90;;;;;;5008989;28;20052;-45
2023/01/23 12:08:33;;;;;;;6.07;4.85;;;4.30;99.90;;;;;;5009756;28;20060;-46
2023/01/23 12:11:21;;;;;;;5.07;3.53;;;4.30;99.90;;;;;;5010141;28;20158;-49
2023/01/23 12:14:02;;;;;;;3.20;2.58;;;4.30;99.90;;;;;;5009791;28;20504;-47
2023/01/23 12:16:46;;;;;;;4.18;3.17;;;4.30;99.90;;;;;;5016595;28;20423;-45
2023/01/23 12:19:36;;;;;;;2.78;2.47;;;4.30;99.90;;;;;;5090872;28;20043;-46
2023/01/23 12:22:02;;;;;;;10.43;6.28;;;4.30;99.90;;;;;;5092580;28;20047;-46
2023/01/23 12:24:57;;;;;;;98.40;83.60;;;4.30;99.90;;;;;;5093666;28;20413;-48
2023/01/23 12:27:39;;;;;;;85.20;65.28;;;4.30;99.90;;;;;;5074291;28;20923;-45
2023/01/23 12:30:32;;;;;;;127.07;84.93;;;4.40;99.90;;;;;;5093573;28;20114;-45
2023/01/23 12:33:25;;;;;;;51.13;41.78;;;4.30;99.90;;;;;;5074748;28;20436;-44
2023/01/23 12:36:18;;;;;;;21.40;18.15;;;4.30;99.90;;;;;;5096704;28;20052;-49
2023/01/23 12:38:56;;;;;;;36.00;32.10;;;4.30;99.90;;;;;;5097103;28;20434;-44
2023/01/23 12:41:36;;;;;;;13.77;12.32;;;4.30;99.90;;;;;;5097408;28;20106;-46
2023/01/23 12:44:17;;;;;;;110.00;90.53;;;4.30;99.90;;;;;;5096124;28;20054;-48
2023/01/23 12:46:55;;;;;;;62.22;54.05;;;4.20;99.90;;;;;;5097319;28;20051;-46
2023/01/23 12:49:42;;;;;;;311.35;161.07;;;4.20;99.90;;;;;;5096726;28;20054;-50
2023/01/23 12:52:20;;;;;;;193.10;128.65;;;4.20;99.90;;;;;;5095775;28;20491;-49
2023/01/23 12:54:53;;;;;;;36.17;22.35;;;4.10;99.90;;;;;;5079591;28;20470;-47
2023/01/23 12:57:38;;;;;;;78.85;66.78;;;4.20;99.90;;;;;;5097480;28;20414;-44
2023/01/23 13:00:27;;;;;;;129.98;99.32;;;4.10;99.90;;;;;;5078996;28;20052;-47
2023/01/23 13:03:29;;;;;;;25.45;21.85;;;4.10;99.90;;;;;;5096294;28;20113;-46